sensor_id;sensor_type;location;lat;lon;timestamp;temperature;humidity
73777;DHT22;62088;50.240;2.696;2023-03-14T00:01:45;10.60;81.30
73777;DHT22;62088;50.240;2.696;2023-03-14T00:04:13;10.60;81.30
73777;DHT22;62088;50.240;2.696;2023-03-14T00:06:40;10.60;81.40
73777;DHT22;62088;50.240;2.696;2023-03-14T00:09:07;10.70;81.40
73777;DHT22;62088;50.240;2.696;2023-03-14T00:11:34;10.70;81.50
73777;DHT22;62088;50.240;2.696;2023-03-14T00:14:01;10.70;81.50
73777;DHT22;62088;50.240;2.696;2023-03-14T00:16:29;10.70;81.60
73777;DHT22;62088;50.240;2.696;2023-03-14T00:18:58;10.70;81.70
73777;DHT22;62088;50.240;2.696;2023-03-14T00:21:26;10.60;81.90
73777;DHT22;62088;50.240;2.696;2023-03-14T00:23:53;10.60;81.90
73777;DHT22;62088;50.240;2.696;2023-03-14T00:26:21;10.60;82.20
73777;DHT22;62088;50.240;2.696;2023-03-14T00:28:51;10.60;82.20
73777;DHT22;62088;50.240;2.696;2023-03-14T00:31:19;10.60;82.30
73777;DHT22;62088;50.240;2.696;2023-03-14T00:33:46;10.60;82.40
73777;DHT22;62088;50.240;2.696;2023-03-14T00:36:16;10.60;82.50
73777;DHT22;62088;50.240;2.696;2023-03-14T00:38:45;10.50;82.50
73777;DHT22;62088;50.240;2.696;2023-03-14T00:41:15;10.50;82.70
73777;DHT22;62088;50.240;2.696;2023-03-14T00:43:43;10.50;82.80
73777;DHT22;62088;50.240;2.696;2023-03-14T00:46:10;10.50;82.80
73777;DHT22;62088;50.240;2.696;2023-03-14T00:48:38;10.40;82.90
73777;DHT22;62088;50.240;2.696;2023-03-14T00:51:06;10.40;83.00
73777;DHT22;62088;50.240;2.696;2023-03-14T00:53:38;10.40;83.10
73777;DHT22;62088;50.240;2.696;2023-03-14T00:56:08;10.40;83.20
73777;DHT22;62088;50.240;2.696;2023-03-14T00:58:36;10.40;83.30
73777;DHT22;62088;50.240;2.696;2023-03-14T01:01:08;10.40;83.30
73777;DHT22;62088;50.240;2.696;2023-03-14T01:03:36;10.40;83.40
73777;DHT22;62088;50.240;2.696;2023-03-14T01:06:16;10.40;83.40
73777;DHT22;62088;50.240;2.696;2023-03-14T01:08:44;10.40;83.40
73777;DHT22;62088;50.240;2.696;2023-03-14T01:11:22;10.40;83.60
73777;DHT22;62088;50.240;2.696;2023-03-14T01:13:50;10.40;83.70
73777;DHT22;62088;50.240;2.696;2023-03-14T01:16:18;10.40;83.80
73777;DHT22;62088;50.240;2.696;2023-03-14T01:18:47;10.40;84.00
73777;DHT22;62088;50.240;2.696;2023-03-14T01:21:21;10.40;84.00
73777;DHT22;62088;50.240;2.696;2023-03-14T01:23:50;10.40;84.00
73777;DHT22;62088;50.240;2.696;2023-03-14T01:26:20;10.40;84.10
73777;DHT22;62088;50.240;2.696;2023-03-14T01:28:48;10.40;84.10
73777;DHT22;62088;50.240;2.696;2023-03-14T01:31:17;10.40;84.10
73777;DHT22;62088;50.240;2.696;2023-03-14T01:33:45;10.40;84.20
73777;DHT22;62088;50.240;2.696;2023-03-14T01:36:13;10.40;84.20
73777;DHT22;62088;50.240;2.696;2023-03-14T01:38:41;10.40;84.20
73777;DHT22;62088;50.240;2.696;2023-03-14T01:41:18;10.40;84.20
73777;DHT22;62088;50.240;2.696;2023-03-14T01:43:46;10.40;84.30
73777;DHT22;62088;50.240;2.696;2023-03-14T01:51:43;10.50;84.40
73777;DHT22;62088;50.240;2.696;2023-03-14T01:57:17;10.40;84.50
73777;DHT22;62088;50.240;2.696;2023-03-14T01:59:51;10.50;84.60
73777;DHT22;62088;50.240;2.696;2023-03-14T02:02:19;10.50;84.60
73777;DHT22;62088;50.240;2.696;2023-03-14T02:04:46;10.50;84.60
73777;DHT22;62088;50.240;2.696;2023-03-14T02:07:21;10.50;84.70
73777;DHT22;62088;50.240;2.696;2023-03-14T02:10:02;10.50;84.70
73777;DHT22;62088;50.240;2.696;2023-03-14T02:12:33;10.50;84.80
73777;DHT22;62088;50.240;2.696;2023-03-14T02:15:09;10.50;84.80
73777;DHT22;62088;50.240;2.696;2023-03-14T02:18:09;10.50;84.80
73777;DHT22;62088;50.240;2.696;2023-03-14T02:24:15;10.50;84.80
73777;DHT22;62088;50.240;2.696;2023-03-14T02:27:13;10.50;84.80
73777;DHT22;62088;50.240;2.696;2023-03-14T02:30:25;10.50;84.90
73777;DHT22;62088;50.240;2.696;2023-03-14T02:33:08;10.60;85.00
73777;DHT22;62088;50.240;2.696;2023-03-14T02:35:49;10.60;85.00
73777;DHT22;62088;50.240;2.696;2023-03-14T02:38:27;10.50;85.00
73777;DHT22;62088;50.240;2.696;2023-03-14T02:40:55;10.60;85.10
73777;DHT22;62088;50.240;2.696;2023-03-14T02:43:23;10.50;85.10
73777;DHT22;62088;50.240;2.696;2023-03-14T02:45:56;10.50;85.10
73777;DHT22;62088;50.240;2.696;2023-03-14T02:51:12;10.60;85.20
73777;DHT22;62088;50.240;2.696;2023-03-14T02:53:41;10.50;85.20
73777;DHT22;62088;50.240;2.696;2023-03-14T02:56:11;10.60;85.20
73777;DHT22;62088;50.240;2.696;2023-03-14T02:58:39;10.60;85.20
73777;DHT22;62088;50.240;2.696;2023-03-14T03:01:25;10.60;85.20
73777;DHT22;62088;50.240;2.696;2023-03-14T03:03:53;10.60;85.20
73777;DHT22;62088;50.240;2.696;2023-03-14T03:06:20;10.60;85.20
73777;DHT22;62088;50.240;2.696;2023-03-14T03:08:47;10.60;85.20
73777;DHT22;62088;50.240;2.696;2023-03-14T03:11:15;10.50;85.20
73777;DHT22;62088;50.240;2.696;2023-03-14T03:13:42;10.60;85.30
73777;DHT22;62088;50.240;2.696;2023-03-14T03:16:09;10.60;85.30
73777;DHT22;62088;50.240;2.696;2023-03-14T03:18:36;10.60;85.30
73777;DHT22;62088;50.240;2.696;2023-03-14T03:21:04;10.60;85.30
73777;DHT22;62088;50.240;2.696;2023-03-14T03:23:32;10.60;85.30
73777;DHT22;62088;50.240;2.696;2023-03-14T03:25:59;10.60;85.30
73777;DHT22;62088;50.240;2.696;2023-03-14T03:28:26;10.60;85.30
73777;DHT22;62088;50.240;2.696;2023-03-14T03:30:54;10.60;85.40
73777;DHT22;62088;50.240;2.696;2023-03-14T03:33:21;10.60;85.30
73777;DHT22;62088;50.240;2.696;2023-03-14T03:35:50;10.60;85.30
73777;DHT22;62088;50.240;2.696;2023-03-14T03:38:25;10.60;85.30
73777;DHT22;62088;50.240;2.696;2023-03-14T03:40:53;10.60;85.30
73777;DHT22;62088;50.240;2.696;2023-03-14T03:43:24;10.60;85.20
73777;DHT22;62088;50.240;2.696;2023-03-14T03:45:51;10.60;85.10
73777;DHT22;62088;50.240;2.696;2023-03-14T03:48:19;10.60;85.10
73777;DHT22;62088;50.240;2.696;2023-03-14T03:50:47;10.60;85.00
73777;DHT22;62088;50.240;2.696;2023-03-14T03:53:17;10.50;84.90
73777;DHT22;62088;50.240;2.696;2023-03-14T03:56:00;10.50;84.70
73777;DHT22;62088;50.240;2.696;2023-03-14T03:58:28;10.50;84.60
73777;DHT22;62088;50.240;2.696;2023-03-14T04:00:55;10.50;84.60
73777;DHT22;62088;50.240;2.696;2023-03-14T04:03:23;10.40;84.50
73777;DHT22;62088;50.240;2.696;2023-03-14T04:06:01;10.40;84.50
73777;DHT22;62088;50.240;2.696;2023-03-14T04:08:29;10.50;84.50
73777;DHT22;62088;50.240;2.696;2023-03-14T04:10:58;10.40;84.40
73777;DHT22;62088;50.240;2.696;2023-03-14T04:13:52;10.40;84.40
73777;DHT22;62088;50.240;2.696;2023-03-14T04:16:22;10.40;84.40
73777;DHT22;62088;50.240;2.696;2023-03-14T04:18:53;10.40;84.40
73777;DHT22;62088;50.240;2.696;2023-03-14T04:21:22;10.40;84.50
73777;DHT22;62088;50.240;2.696;2023-03-14T04:23:54;10.40;84.50
73777;DHT22;62088;50.240;2.696;2023-03-14T04:26:21;10.40;84.50
73777;DHT22;62088;50.240;2.696;2023-03-14T04:28:48;10.40;84.60
73777;DHT22;62088;50.240;2.696;2023-03-14T04:31:18;10.40;84.60
73777;DHT22;62088;50.240;2.696;2023-03-14T04:33:46;10.40;84.70
73777;DHT22;62088;50.240;2.696;2023-03-14T04:36:16;10.40;84.70
73777;DHT22;62088;50.240;2.696;2023-03-14T04:38:43;10.40;84.80
73777;DHT22;62088;50.240;2.696;2023-03-14T04:41:12;10.40;84.90
73777;DHT22;62088;50.240;2.696;2023-03-14T04:43:39;10.40;84.90
73777;DHT22;62088;50.240;2.696;2023-03-14T04:46:08;10.40;84.90
73777;DHT22;62088;50.240;2.696;2023-03-14T04:48:35;10.40;85.00
73777;DHT22;62088;50.240;2.696;2023-03-14T04:51:02;10.40;85.00
73777;DHT22;62088;50.240;2.696;2023-03-14T04:53:32;10.40;85.10
73777;DHT22;62088;50.240;2.696;2023-03-14T04:56:02;10.40;85.10
73777;DHT22;62088;50.240;2.696;2023-03-14T04:58:36;10.40;85.10
73777;DHT22;62088;50.240;2.696;2023-03-14T05:01:05;10.40;85.10
73777;DHT22;62088;50.240;2.696;2023-03-14T05:03:47;10.40;85.20
73777;DHT22;62088;50.240;2.696;2023-03-14T05:06:14;10.40;85.20
73777;DHT22;62088;50.240;2.696;2023-03-14T05:08:41;10.40;85.20
73777;DHT22;62088;50.240;2.696;2023-03-14T05:11:26;10.40;85.30
73777;DHT22;62088;50.240;2.696;2023-03-14T05:14:11;10.40;85.30
73777;DHT22;62088;50.240;2.696;2023-03-14T05:16:57;10.40;85.30
73777;DHT22;62088;50.240;2.696;2023-03-14T05:19:35;10.40;85.30
73777;DHT22;62088;50.240;2.696;2023-03-14T05:22:11;10.40;85.40
73777;DHT22;62088;50.240;2.696;2023-03-14T05:24:52;10.40;85.40
73777;DHT22;62088;50.240;2.696;2023-03-14T05:27:26;10.40;85.40
73777;DHT22;62088;50.240;2.696;2023-03-14T05:30:13;10.40;85.50
73777;DHT22;62088;50.240;2.696;2023-03-14T05:33:00;10.40;85.00
73777;DHT22;62088;50.240;2.696;2023-03-14T05:35:42;10.20;84.60
73777;DHT22;62088;50.240;2.696;2023-03-14T05:38:48;10.20;84.10
73777;DHT22;62088;50.240;2.696;2023-03-14T05:41:41;10.00;83.30
73777;DHT22;62088;50.240;2.696;2023-03-14T05:44:31;9.90;82.20
73777;DHT22;62088;50.240;2.696;2023-03-14T05:47:27;9.80;81.60
73777;DHT22;62088;50.240;2.696;2023-03-14T05:50:18;9.60;81.30
73777;DHT22;62088;50.240;2.696;2023-03-14T05:52:59;9.50;81.20
73777;DHT22;62088;50.240;2.696;2023-03-14T05:55:52;9.40;81.10
73777;DHT22;62088;50.240;2.696;2023-03-14T05:58:38;9.40;81.00
73777;DHT22;62088;50.240;2.696;2023-03-14T06:01:43;9.20;80.70
73777;DHT22;62088;50.240;2.696;2023-03-14T06:04:18;9.00;80.50
73777;DHT22;62088;50.240;2.696;2023-03-14T06:06:50;8.90;80.30
73777;DHT22;62088;50.240;2.696;2023-03-14T06:09:17;8.90;80.30
73777;DHT22;62088;50.240;2.696;2023-03-14T06:11:46;8.90;80.50
73777;DHT22;62088;50.240;2.696;2023-03-14T06:14:13;8.70;80.50
73777;DHT22;62088;50.240;2.696;2023-03-14T06:16:43;8.70;80.60
73777;DHT22;62088;50.240;2.696;2023-03-14T06:19:11;8.60;80.70
73777;DHT22;62088;50.240;2.696;2023-03-14T06:21:39;8.60;80.70
73777;DHT22;62088;50.240;2.696;2023-03-14T06:24:06;8.50;80.70
73777;DHT22;62088;50.240;2.696;2023-03-14T06:26:40;8.50;80.50
73777;DHT22;62088;50.240;2.696;2023-03-14T06:29:08;8.40;80.60
73777;DHT22;62088;50.240;2.696;2023-03-14T06:31:36;8.40;80.70
73777;DHT22;62088;50.240;2.696;2023-03-14T06:34:06;8.30;80.70
73777;DHT22;62088;50.240;2.696;2023-03-14T06:36:33;8.20;80.70
73777;DHT22;62088;50.240;2.696;2023-03-14T06:39:00;8.20;80.70
73777;DHT22;62088;50.240;2.696;2023-03-14T06:41:30;8.10;80.00
73777;DHT22;62088;50.240;2.696;2023-03-14T06:43:58;8.00;79.90
73777;DHT22;62088;50.240;2.696;2023-03-14T06:46:26;7.90;79.30
73777;DHT22;62088;50.240;2.696;2023-03-14T06:48:53;7.90;79.00
73777;DHT22;62088;50.240;2.696;2023-03-14T06:51:20;7.80;78.70
73777;DHT22;62088;50.240;2.696;2023-03-14T06:53:48;7.70;78.00
73777;DHT22;62088;50.240;2.696;2023-03-14T06:56:18;7.70;77.80
73777;DHT22;62088;50.240;2.696;2023-03-14T06:58:46;7.70;78.00
73777;DHT22;62088;50.240;2.696;2023-03-14T07:01:23;7.60;77.90
73777;DHT22;62088;50.240;2.696;2023-03-14T07:03:52;7.60;77.70
73777;DHT22;62088;50.240;2.696;2023-03-14T07:06:21;7.60;77.80
73777;DHT22;62088;50.240;2.696;2023-03-14T07:08:48;7.50;77.90
73777;DHT22;62088;50.240;2.696;2023-03-14T07:11:17;7.50;77.90
73777;DHT22;62088;50.240;2.696;2023-03-14T07:13:44;7.50;77.80
73777;DHT22;62088;50.240;2.696;2023-03-14T07:16:11;7.40;77.80
73777;DHT22;62088;50.240;2.696;2023-03-14T07:18:38;7.50;77.90
73777;DHT22;62088;50.240;2.696;2023-03-14T07:21:06;7.40;77.90
73777;DHT22;62088;50.240;2.696;2023-03-14T07:23:34;7.40;77.90
73777;DHT22;62088;50.240;2.696;2023-03-14T07:26:01;7.40;77.70
73777;DHT22;62088;50.240;2.696;2023-03-14T07:28:31;7.40;77.70
73777;DHT22;62088;50.240;2.696;2023-03-14T07:31:06;7.40;77.60
73777;DHT22;62088;50.240;2.696;2023-03-14T07:33:33;7.40;77.60
73777;DHT22;62088;50.240;2.696;2023-03-14T07:36:02;7.40;77.60
73777;DHT22;62088;50.240;2.696;2023-03-14T07:38:30;7.30;77.60
73777;DHT22;62088;50.240;2.696;2023-03-14T07:41:30;7.30;77.30
73777;DHT22;62088;50.240;2.696;2023-03-14T07:44:15;7.30;76.10
73777;DHT22;62088;50.240;2.696;2023-03-14T07:46:42;7.20;75.80
73777;DHT22;62088;50.240;2.696;2023-03-14T07:49:10;7.20;75.40
73777;DHT22;62088;50.240;2.696;2023-03-14T07:51:37;7.20;75.40
73777;DHT22;62088;50.240;2.696;2023-03-14T07:54:04;7.20;74.90
73777;DHT22;62088;50.240;2.696;2023-03-14T07:56:30;7.10;74.90
73777;DHT22;62088;50.240;2.696;2023-03-14T07:58:57;7.10;75.10
73777;DHT22;62088;50.240;2.696;2023-03-14T08:01:25;7.10;75.30
73777;DHT22;62088;50.240;2.696;2023-03-14T08:03:52;7.00;75.40
73777;DHT22;62088;50.240;2.696;2023-03-14T08:06:19;7.10;75.60
73777;DHT22;62088;50.240;2.696;2023-03-14T08:08:46;7.00;75.80
73777;DHT22;62088;50.240;2.696;2023-03-14T08:11:13;7.10;75.90
73777;DHT22;62088;50.240;2.696;2023-03-14T08:13:40;7.10;76.00
73777;DHT22;62088;50.240;2.696;2023-03-14T08:16:07;7.10;76.10
73777;DHT22;62088;50.240;2.696;2023-03-14T08:18:34;7.20;76.20
73777;DHT22;62088;50.240;2.696;2023-03-14T08:21:01;7.20;76.10
73777;DHT22;62088;50.240;2.696;2023-03-14T08:23:28;7.20;75.70
73777;DHT22;62088;50.240;2.696;2023-03-14T08:25:55;7.20;74.90
73777;DHT22;62088;50.240;2.696;2023-03-14T08:28:22;7.30;74.90
73777;DHT22;62088;50.240;2.696;2023-03-14T08:30:49;7.30;74.90
73777;DHT22;62088;50.240;2.696;2023-03-14T08:33:16;7.40;75.00
73777;DHT22;62088;50.240;2.696;2023-03-14T08:35:43;7.40;74.60
73777;DHT22;62088;50.240;2.696;2023-03-14T08:38:10;7.50;74.40
73777;DHT22;62088;50.240;2.696;2023-03-14T08:40:37;7.50;73.70
73777;DHT22;62088;50.240;2.696;2023-03-14T08:43:04;7.50;73.60
73777;DHT22;62088;50.240;2.696;2023-03-14T08:45:31;7.60;73.70
73777;DHT22;62088;50.240;2.696;2023-03-14T08:47:58;7.70;73.90
73777;DHT22;62088;50.240;2.696;2023-03-14T08:50:26;7.80;73.70
73777;DHT22;62088;50.240;2.696;2023-03-14T08:52:53;7.80;72.80
73777;DHT22;62088;50.240;2.696;2023-03-14T08:55:20;7.90;72.60
73777;DHT22;62088;50.240;2.696;2023-03-14T08:57:47;7.90;72.90
73777;DHT22;62088;50.240;2.696;2023-03-14T09:00:15;8.00;72.50
73777;DHT22;62088;50.240;2.696;2023-03-14T09:02:42;8.00;72.20
73777;DHT22;62088;50.240;2.696;2023-03-14T09:05:10;8.00;72.00
73777;DHT22;62088;50.240;2.696;2023-03-14T09:07:38;8.10;71.60
73777;DHT22;62088;50.240;2.696;2023-03-14T09:10:07;8.20;71.60
73777;DHT22;62088;50.240;2.696;2023-03-14T09:12:34;8.20;71.70
73777;DHT22;62088;50.240;2.696;2023-03-14T09:15:01;8.30;71.50
73777;DHT22;62088;50.240;2.696;2023-03-14T09:17:28;8.30;71.70
73777;DHT22;62088;50.240;2.696;2023-03-14T09:19:55;8.40;71.70
73777;DHT22;62088;50.240;2.696;2023-03-14T09:22:26;8.50;71.20
73777;DHT22;62088;50.240;2.696;2023-03-14T09:24:53;8.50;69.20
73777;DHT22;62088;50.240;2.696;2023-03-14T09:27:20;8.50;69.50
73777;DHT22;62088;50.240;2.696;2023-03-14T09:29:47;8.70;70.40
73777;DHT22;62088;50.240;2.696;2023-03-14T09:32:14;8.80;70.70
73777;DHT22;62088;50.240;2.696;2023-03-14T09:34:41;8.90;71.20
73777;DHT22;62088;50.240;2.696;2023-03-14T09:37:08;9.00;71.60
73777;DHT22;62088;50.240;2.696;2023-03-14T09:39:35;9.10;71.30
73777;DHT22;62088;50.240;2.696;2023-03-14T09:42:05;9.20;71.10
73777;DHT22;62088;50.240;2.696;2023-03-14T09:44:41;9.30;70.30
73777;DHT22;62088;50.240;2.696;2023-03-14T09:47:12;9.30;69.10
73777;DHT22;62088;50.240;2.696;2023-03-14T09:49:41;9.30;67.70
73777;DHT22;62088;50.240;2.696;2023-03-14T09:52:15;9.30;68.30
73777;DHT22;62088;50.240;2.696;2023-03-14T09:57:18;9.30;68.60
73777;DHT22;62088;50.240;2.696;2023-03-14T09:59:49;9.40;69.10
73777;DHT22;62088;50.240;2.696;2023-03-14T10:02:23;9.40;69.20
73777;DHT22;62088;50.240;2.696;2023-03-14T10:04:52;9.40;68.30
73777;DHT22;62088;50.240;2.696;2023-03-14T10:07:28;9.40;67.20
73777;DHT22;62088;50.240;2.696;2023-03-14T10:09:56;9.40;67.30
73777;DHT22;62088;50.240;2.696;2023-03-14T10:12:37;9.40;67.70
73777;DHT22;62088;50.240;2.696;2023-03-14T10:15:11;9.40;67.50
73777;DHT22;62088;50.240;2.696;2023-03-14T10:17:44;9.40;67.20
73777;DHT22;62088;50.240;2.696;2023-03-14T10:23:01;9.30;67.20
73777;DHT22;62088;50.240;2.696;2023-03-14T10:25:34;9.30;67.60
73777;DHT22;62088;50.240;2.696;2023-03-14T10:28:03;9.30;67.70
73777;DHT22;62088;50.240;2.696;2023-03-14T10:30:41;9.30;66.90
73777;DHT22;62088;50.240;2.696;2023-03-14T10:35:56;9.30;67.60
73777;DHT22;62088;50.240;2.696;2023-03-14T10:38:27;9.40;67.90
73777;DHT22;62088;50.240;2.696;2023-03-14T10:40:56;9.40;67.90
73777;DHT22;62088;50.240;2.696;2023-03-14T10:43:31;9.40;66.40
73777;DHT22;62088;50.240;2.696;2023-03-14T10:46:12;9.40;67.20
73777;DHT22;62088;50.240;2.696;2023-03-14T10:49:04;9.50;67.40
73777;DHT22;62088;50.240;2.696;2023-03-14T10:51:32;9.50;66.70
73777;DHT22;62088;50.240;2.696;2023-03-14T10:54:11;9.50;66.90
73777;DHT22;62088;50.240;2.696;2023-03-14T10:56:39;9.50;66.30
73777;DHT22;62088;50.240;2.696;2023-03-14T10:59:14;9.50;66.30
73777;DHT22;62088;50.240;2.696;2023-03-14T11:01:58;9.50;67.00
73777;DHT22;62088;50.240;2.696;2023-03-14T11:07:27;9.80;68.90
73777;DHT22;62088;50.240;2.696;2023-03-14T11:10:02;10.00;69.40
73777;DHT22;62088;50.240;2.696;2023-03-14T11:12:41;10.20;69.40
73777;DHT22;62088;50.240;2.696;2023-03-14T11:15:20;10.40;68.50
73777;DHT22;62088;50.240;2.696;2023-03-14T11:21:11;10.60;66.90
73777;DHT22;62088;50.240;2.696;2023-03-14T11:26:37;10.80;65.50
73777;DHT22;62088;50.240;2.696;2023-03-14T11:32:02;10.90;66.40
73777;DHT22;62088;50.240;2.696;2023-03-14T11:34:48;10.90;67.60
73777;DHT22;62088;50.240;2.696;2023-03-14T11:37:40;10.90;67.60
73777;DHT22;62088;50.240;2.696;2023-03-14T11:40:18;10.80;67.50
73777;DHT22;62088;50.240;2.696;2023-03-14T11:42:54;10.60;67.50
73777;DHT22;62088;50.240;2.696;2023-03-14T11:45:29;10.40;66.30
73777;DHT22;62088;50.240;2.696;2023-03-14T11:48:20;10.20;68.00
73777;DHT22;62088;50.240;2.696;2023-03-14T11:50:52;10.20;69.00
73777;DHT22;62088;50.240;2.696;2023-03-14T11:53:25;10.10;68.40
73777;DHT22;62088;50.240;2.696;2023-03-14T11:55:57;10.10;68.20
73777;DHT22;62088;50.240;2.696;2023-03-14T11:58:27;10.20;68.70
73777;DHT22;62088;50.240;2.696;2023-03-14T12:00:57;10.20;69.20
73777;DHT22;62088;50.240;2.696;2023-03-14T12:03:35;10.40;69.30
73777;DHT22;62088;50.240;2.696;2023-03-14T12:09:18;10.50;67.70
73777;DHT22;62088;50.240;2.696;2023-03-14T12:11:58;10.70;68.00
73777;DHT22;62088;50.240;2.696;2023-03-14T12:14:30;10.80;67.90
73777;DHT22;62088;50.240;2.696;2023-03-14T12:17:17;10.90;68.10
73777;DHT22;62088;50.240;2.696;2023-03-14T12:19:45;11.00;65.00
73777;DHT22;62088;50.240;2.696;2023-03-14T12:22:27;11.00;64.90
73777;DHT22;62088;50.240;2.696;2023-03-14T12:25:25;10.90;64.20
73777;DHT22;62088;50.240;2.696;2023-03-14T12:30:36;10.80;63.40
73777;DHT22;62088;50.240;2.696;2023-03-14T12:35:50;10.70;64.00
73777;DHT22;62088;50.240;2.696;2023-03-14T12:41:43;10.50;63.80
73777;DHT22;62088;50.240;2.696;2023-03-14T12:46:59;10.40;65.20
73777;DHT22;62088;50.240;2.696;2023-03-14T12:49:35;10.40;66.20
73777;DHT22;62088;50.240;2.696;2023-03-14T12:52:14;10.30;67.10
73777;DHT22;62088;50.240;2.696;2023-03-14T12:54:55;10.30;68.10
73777;DHT22;62088;50.240;2.696;2023-03-14T12:57:28;10.30;68.20
73777;DHT22;62088;50.240;2.696;2023-03-14T13:00:02;10.40;68.20
73777;DHT22;62088;50.240;2.696;2023-03-14T13:02:43;10.40;68.60
73777;DHT22;62088;50.240;2.696;2023-03-14T13:05:22;10.50;67.80
73777;DHT22;62088;50.240;2.696;2023-03-14T13:10:29;10.60;68.40
73777;DHT22;62088;50.240;2.696;2023-03-14T13:13:23;10.50;68.80
73777;DHT22;62088;50.240;2.696;2023-03-14T13:15:58;10.50;69.30
73777;DHT22;62088;50.240;2.696;2023-03-14T13:21:18;10.30;70.60
73777;DHT22;62088;50.240;2.696;2023-03-14T13:26:40;10.20;70.90
73777;DHT22;62088;50.240;2.696;2023-03-14T13:31:48;9.90;70.40
73777;DHT22;62088;50.240;2.696;2023-03-14T13:34:17;9.80;70.50
73777;DHT22;62088;50.240;2.696;2023-03-14T13:36:44;9.70;70.50
73777;DHT22;62088;50.240;2.696;2023-03-14T13:39:18;9.50;70.70
73777;DHT22;62088;50.240;2.696;2023-03-14T13:41:46;9.40;70.70
73777;DHT22;62088;50.240;2.696;2023-03-14T13:44:16;9.30;70.60
73777;DHT22;62088;50.240;2.696;2023-03-14T13:46:44;9.10;70.90
73777;DHT22;62088;50.240;2.696;2023-03-14T13:49:16;9.00;71.20
73777;DHT22;62088;50.240;2.696;2023-03-14T13:51:44;8.90;71.50
73777;DHT22;62088;50.240;2.696;2023-03-14T13:54:19;8.80;71.80
73777;DHT22;62088;50.240;2.696;2023-03-14T13:56:47;8.70;71.90
73777;DHT22;62088;50.240;2.696;2023-03-14T13:59:22;8.60;72.20
73777;DHT22;62088;50.240;2.696;2023-03-14T14:01:50;8.50;72.60
73777;DHT22;62088;50.240;2.696;2023-03-14T14:04:20;8.40;72.90
73777;DHT22;62088;50.240;2.696;2023-03-14T14:06:59;8.40;73.10
73777;DHT22;62088;50.240;2.696;2023-03-14T14:09:37;8.30;72.90
73777;DHT22;62088;50.240;2.696;2023-03-14T14:12:15;8.30;72.90
73777;DHT22;62088;50.240;2.696;2023-03-14T14:17:36;8.20;73.70
73777;DHT22;62088;50.240;2.696;2023-03-14T14:20:08;8.20;74.20
73777;DHT22;62088;50.240;2.696;2023-03-14T14:22:36;8.20;74.50
73777;DHT22;62088;50.240;2.696;2023-03-14T14:25:03;8.20;74.60
73777;DHT22;62088;50.240;2.696;2023-03-14T14:27:37;8.20;74.90
73777;DHT22;62088;50.240;2.696;2023-03-14T14:30:29;8.30;75.00
73777;DHT22;62088;50.240;2.696;2023-03-14T14:33:12;8.30;75.00
73777;DHT22;62088;50.240;2.696;2023-03-14T14:35:52;8.30;74.90
73777;DHT22;62088;50.240;2.696;2023-03-14T14:38:19;8.30;74.70
73777;DHT22;62088;50.240;2.696;2023-03-14T14:40:49;8.30;74.50
73777;DHT22;62088;50.240;2.696;2023-03-14T14:43:22;8.20;74.00
73777;DHT22;62088;50.240;2.696;2023-03-14T14:45:52;8.20;73.90
73777;DHT22;62088;50.240;2.696;2023-03-14T14:48:27;8.20;73.60
73777;DHT22;62088;50.240;2.696;2023-03-14T14:51:04;8.00;73.50
73777;DHT22;62088;50.240;2.696;2023-03-14T14:53:40;8.00;73.70
73777;DHT22;62088;50.240;2.696;2023-03-14T14:56:25;8.00;73.70
73777;DHT22;62088;50.240;2.696;2023-03-14T14:58:59;8.00;73.80
73777;DHT22;62088;50.240;2.696;2023-03-14T15:01:37;8.00;74.00
73777;DHT22;62088;50.240;2.696;2023-03-14T15:04:11;7.90;74.10
73777;DHT22;62088;50.240;2.696;2023-03-14T15:06:43;7.90;74.40
73777;DHT22;62088;50.240;2.696;2023-03-14T15:09:11;7.90;74.60
73777;DHT22;62088;50.240;2.696;2023-03-14T15:11:38;7.90;74.70
73777;DHT22;62088;50.240;2.696;2023-03-14T15:14:05;7.90;74.80
73777;DHT22;62088;50.240;2.696;2023-03-14T15:16:34;7.90;75.00
73777;DHT22;62088;50.240;2.696;2023-03-14T15:19:03;7.90;75.00
73777;DHT22;62088;50.240;2.696;2023-03-14T15:21:49;7.90;75.00
73777;DHT22;62088;50.240;2.696;2023-03-14T15:24:16;7.90;75.00
73777;DHT22;62088;50.240;2.696;2023-03-14T15:26:43;7.90;75.00
73777;DHT22;62088;50.240;2.696;2023-03-14T15:29:11;7.80;75.10
73777;DHT22;62088;50.240;2.696;2023-03-14T15:31:40;7.80;75.20
73777;DHT22;62088;50.240;2.696;2023-03-14T15:34:08;7.80;75.30
73777;DHT22;62088;50.240;2.696;2023-03-14T15:36:36;7.80;75.30
73777;DHT22;62088;50.240;2.696;2023-03-14T15:39:05;7.90;75.30
73777;DHT22;62088;50.240;2.696;2023-03-14T15:41:33;7.80;75.30
73777;DHT22;62088;50.240;2.696;2023-03-14T15:44:00;7.80;75.30
73777;DHT22;62088;50.240;2.696;2023-03-14T15:46:27;7.80;75.20
73777;DHT22;62088;50.240;2.696;2023-03-14T15:48:56;7.80;75.30
73777;DHT22;62088;50.240;2.696;2023-03-14T15:51:23;7.80;75.20
73777;DHT22;62088;50.240;2.696;2023-03-14T15:53:50;7.80;75.10
73777;DHT22;62088;50.240;2.696;2023-03-14T15:56:19;7.80;75.00
73777;DHT22;62088;50.240;2.696;2023-03-14T15:58:47;7.80;74.90
73777;DHT22;62088;50.240;2.696;2023-03-14T16:01:15;7.80;74.90
73777;DHT22;62088;50.240;2.696;2023-03-14T16:03:45;7.90;74.80
73777;DHT22;62088;50.240;2.696;2023-03-14T16:06:13;7.90;74.70
73777;DHT22;62088;50.240;2.696;2023-03-14T16:08:41;7.90;74.70
73777;DHT22;62088;50.240;2.696;2023-03-14T16:11:10;7.80;74.80
73777;DHT22;62088;50.240;2.696;2023-03-14T16:13:38;7.90;74.80
73777;DHT22;62088;50.240;2.696;2023-03-14T16:16:06;7.90;74.80
73777;DHT22;62088;50.240;2.696;2023-03-14T16:18:36;7.90;74.80
73777;DHT22;62088;50.240;2.696;2023-03-14T16:21:05;7.90;74.90
73777;DHT22;62088;50.240;2.696;2023-03-14T16:23:34;7.90;74.80
73777;DHT22;62088;50.240;2.696;2023-03-14T16:26:11;8.00;74.70
73777;DHT22;62088;50.240;2.696;2023-03-14T16:28:38;8.00;74.60
73777;DHT22;62088;50.240;2.696;2023-03-14T16:31:07;8.00;74.50
73777;DHT22;62088;50.240;2.696;2023-03-14T16:33:35;8.00;74.30
73777;DHT22;62088;50.240;2.696;2023-03-14T16:36:04;8.00;74.20
73777;DHT22;62088;50.240;2.696;2023-03-14T16:38:35;8.00;74.20
73777;DHT22;62088;50.240;2.696;2023-03-14T16:41:11;8.10;74.20
73777;DHT22;62088;50.240;2.696;2023-03-14T16:43:39;8.10;74.40
73777;DHT22;62088;50.240;2.696;2023-03-14T16:46:10;8.20;74.40
73777;DHT22;62088;50.240;2.696;2023-03-14T16:48:38;8.20;74.30
73777;DHT22;62088;50.240;2.696;2023-03-14T16:51:05;8.20;74.20
73777;DHT22;62088;50.240;2.696;2023-03-14T16:53:32;8.20;73.90
73777;DHT22;62088;50.240;2.696;2023-03-14T16:55:59;8.20;73.60
73777;DHT22;62088;50.240;2.696;2023-03-14T16:58:26;8.20;73.40
73777;DHT22;62088;50.240;2.696;2023-03-14T17:00:53;8.20;73.30
73777;DHT22;62088;50.240;2.696;2023-03-14T17:03:23;8.20;73.20
73777;DHT22;62088;50.240;2.696;2023-03-14T17:05:51;8.20;73.00
73777;DHT22;62088;50.240;2.696;2023-03-14T17:08:19;8.10;72.90
73777;DHT22;62088;50.240;2.696;2023-03-14T17:10:48;8.10;72.80
73777;DHT22;62088;50.240;2.696;2023-03-14T17:13:15;8.00;72.60